sensor_id;sensor_type;location;lat;lon;timestamp;P1;durP1;ratioP1;P2;durP2;ratioP2
5953;SDS011;3002;42.642;24.812;2022-09-09T00:00:38;22.03;;;3.93;;
5953;SDS011;3002;42.642;24.812;2022-09-09T00:03:16;31.37;;;6.20;;
5953;SDS011;3002;42.642;24.812;2022-09-09T00:05:57;18.87;;;4.03;;
5953;SDS011;3002;42.642;24.812;2022-09-09T00:08:25;15.63;;;4.30;;
5953;SDS011;3002;42.642;24.812;2022-09-09T00:10:56;16.50;;;3.73;;
5953;SDS011;3002;42.642;24.812;2022-09-09T00:13:28;17.57;;;3.53;;
5953;SDS011;3002;42.642;24.812;2022-09-09T00:16:15;26.50;;;5.60;;
5953;SDS011;3002;42.642;24.812;2022-09-09T00:21:30;18.63;;;3.73;;
5953;SDS011;3002;42.642;24.812;2022-09-09T00:23:57;14.00;;;2.93;;
5953;SDS011;3002;42.642;24.812;2022-09-09T00:28:59;17.63;;;3.27;;
5953;SDS011;3002;42.642;24.812;2022-09-09T00:31:27;27.07;;;4.77;;
5953;SDS011;3002;42.642;24.812;2022-09-09T00:33:53;13.67;;;3.00;;
5953;SDS011;3002;42.642;24.812;2022-09-09T00:36:23;18.93;;;3.90;;
5953;SDS011;3002;42.642;24.812;2022-09-09T00:38:57;17.43;;;4.43;;
5953;SDS011;3002;42.642;24.812;2022-09-09T00:44:25;19.70;;;4.57;;
5953;SDS011;3002;42.642;24.812;2022-09-09T00:49:34;25.00;;;5.17;;
5953;SDS011;3002;42.642;24.812;2022-09-09T00:54:44;21.60;;;5.07;;
5953;SDS011;3002;42.642;24.812;2022-09-09T00:59:48;18.40;;;4.77;;
5953;SDS011;3002;42.642;24.812;2022-09-09T01:02:21;20.77;;;5.33;;
5953;SDS011;3002;42.642;24.812;2022-09-09T01:04:50;24.93;;;5.60;;
5953;SDS011;3002;42.642;24.812;2022-09-09T01:07:17;18.47;;;4.27;;
5953;SDS011;3002;42.642;24.812;2022-09-09T01:09:50;20.83;;;3.80;;
5953;SDS011;3002;42.642;24.812;2022-09-09T01:14:56;21.87;;;4.33;;
5953;SDS011;3002;42.642;24.812;2022-09-09T01:17:28;16.03;;;3.30;;
5953;SDS011;3002;42.642;24.812;2022-09-09T01:19:57;25.93;;;4.87;;
5953;SDS011;3002;42.642;24.812;2022-09-09T01:27:52;15.73;;;3.63;;
5953;SDS011;3002;42.642;24.812;2022-09-09T01:30:19;24.67;;;4.77;;
5953;SDS011;3002;42.642;24.812;2022-09-09T01:32:49;12.00;;;3.07;;
5953;SDS011;3002;42.642;24.812;2022-09-09T01:35:22;19.27;;;4.60;;
5953;SDS011;3002;42.642;24.812;2022-09-09T01:37:51;18.03;;;3.93;;
5953;SDS011;3002;42.642;24.812;2022-09-09T01:40:17;17.17;;;3.70;;
5953;SDS011;3002;42.642;24.812;2022-09-09T01:42:42;20.10;;;3.93;;
5953;SDS011;3002;42.642;24.812;2022-09-09T01:45:07;28.90;;;5.70;;
5953;SDS011;3002;42.642;24.812;2022-09-09T01:47:33;20.93;;;4.43;;
5953;SDS011;3002;42.642;24.812;2022-09-09T01:49:59;15.07;;;3.53;;
5953;SDS011;3002;42.642;24.812;2022-09-09T01:52:25;21.17;;;4.20;;
5953;SDS011;3002;42.642;24.812;2022-09-09T01:54:50;14.40;;;3.33;;
5953;SDS011;3002;42.642;24.812;2022-09-09T02:02:11;10.33;;;2.93;;
5953;SDS011;3002;42.642;24.812;2022-09-09T02:07:04;17.27;;;4.53;;
5953;SDS011;3002;42.642;24.812;2022-09-09T02:09:31;21.20;;;5.27;;
5953;SDS011;3002;42.642;24.812;2022-09-09T02:12:01;26.67;;;5.37;;
5953;SDS011;3002;42.642;24.812;2022-09-09T02:14:34;15.33;;;3.73;;
5953;SDS011;3002;42.642;24.812;2022-09-09T02:17:08;29.37;;;6.53;;
5953;SDS011;3002;42.642;24.812;2022-09-09T02:19:35;20.17;;;4.53;;
5953;SDS011;3002;42.642;24.812;2022-09-09T02:22:02;32.90;;;6.50;;
5953;SDS011;3002;42.642;24.812;2022-09-09T02:24:28;15.80;;;4.00;;
5953;SDS011;3002;42.642;24.812;2022-09-09T02:26:54;27.03;;;5.63;;
5953;SDS011;3002;42.642;24.812;2022-09-09T02:32:13;15.40;;;4.40;;
5953;SDS011;3002;42.642;24.812;2022-09-09T02:34:40;20.37;;;4.93;;
5953;SDS011;3002;42.642;24.812;2022-09-09T02:37:08;31.50;;;6.43;;
5953;SDS011;3002;42.642;24.812;2022-09-09T02:39:34;19.70;;;3.63;;
5953;SDS011;3002;42.642;24.812;2022-09-09T02:42:00;16.93;;;4.60;;
5953;SDS011;3002;42.642;24.812;2022-09-09T02:44:25;24.97;;;5.70;;
5953;SDS011;3002;42.642;24.812;2022-09-09T02:47:00;14.67;;;3.70;;
5953;SDS011;3002;42.642;24.812;2022-09-09T02:49:30;16.57;;;4.53;;
5953;SDS011;3002;42.642;24.812;2022-09-09T02:52:06;14.17;;;4.63;;
5953;SDS011;3002;42.642;24.812;2022-09-09T02:54:33;19.70;;;5.30;;
5953;SDS011;3002;42.642;24.812;2022-09-09T02:59:32;17.33;;;4.47;;
5953;SDS011;3002;42.642;24.812;2022-09-09T03:01:58;21.47;;;5.30;;
5953;SDS011;3002;42.642;24.812;2022-09-09T03:04:23;18.90;;;5.07;;
5953;SDS011;3002;42.642;24.812;2022-09-09T03:06:50;18.63;;;4.47;;
5953;SDS011;3002;42.642;24.812;2022-09-09T03:09:15;18.83;;;5.17;;
5953;SDS011;3002;42.642;24.812;2022-09-09T03:11:40;18.73;;;4.90;;
5953;SDS011;3002;42.642;24.812;2022-09-09T03:14:05;25.20;;;5.10;;
5953;SDS011;3002;42.642;24.812;2022-09-09T03:16:31;23.30;;;5.17;;
5953;SDS011;3002;42.642;24.812;2022-09-09T03:18:58;27.47;;;5.90;;
5953;SDS011;3002;42.642;24.812;2022-09-09T03:21:23;19.40;;;4.80;;
5953;SDS011;3002;42.642;24.812;2022-09-09T03:23:50;19.57;;;4.43;;
5953;SDS011;3002;42.642;24.812;2022-09-09T03:26:15;19.23;;;4.53;;
5953;SDS011;3002;42.642;24.812;2022-09-09T03:28:41;19.03;;;4.97;;
5953;SDS011;3002;42.642;24.812;2022-09-09T03:31:07;11.57;;;3.30;;
5953;SDS011;3002;42.642;24.812;2022-09-09T03:33:35;17.53;;;4.80;;
5953;SDS011;3002;42.642;24.812;2022-09-09T03:36:01;18.23;;;5.20;;
5953;SDS011;3002;42.642;24.812;2022-09-09T03:38:26;23.20;;;5.07;;
5953;SDS011;3002;42.642;24.812;2022-09-09T03:40:54;18.83;;;4.50;;
5953;SDS011;3002;42.642;24.812;2022-09-09T03:43:23;17.63;;;4.47;;
5953;SDS011;3002;42.642;24.812;2022-09-09T03:45:49;19.67;;;4.70;;
5953;SDS011;3002;42.642;24.812;2022-09-09T03:48:15;18.47;;;4.60;;
5953;SDS011;3002;42.642;24.812;2022-09-09T03:50:46;29.87;;;6.03;;
5953;SDS011;3002;42.642;24.812;2022-09-09T03:53:12;17.70;;;4.80;;
5953;SDS011;3002;42.642;24.812;2022-09-09T03:55:38;27.77;;;5.97;;
5953;SDS011;3002;42.642;24.812;2022-09-09T03:58:03;19.50;;;4.67;;
5953;SDS011;3002;42.642;24.812;2022-09-09T04:00:29;18.20;;;4.80;;
5953;SDS011;3002;42.642;24.812;2022-09-09T04:02:55;22.47;;;5.40;;
5953;SDS011;3002;42.642;24.812;2022-09-09T04:05:22;13.27;;;3.53;;
5953;SDS011;3002;42.642;24.812;2022-09-09T04:07:48;18.03;;;4.33;;
5953;SDS011;3002;42.642;24.812;2022-09-09T04:10:13;27.33;;;4.40;;
5953;SDS011;3002;42.642;24.812;2022-09-09T04:12:38;22.10;;;4.53;;
5953;SDS011;3002;42.642;24.812;2022-09-09T04:15:04;22.63;;;5.10;;
5953;SDS011;3002;42.642;24.812;2022-09-09T04:17:29;34.03;;;6.10;;
5953;SDS011;3002;42.642;24.812;2022-09-09T04:19:54;16.47;;;3.90;;
5953;SDS011;3002;42.642;24.812;2022-09-09T04:22:20;21.37;;;4.70;;
5953;SDS011;3002;42.642;24.812;2022-09-09T04:24:46;23.03;;;4.83;;
5953;SDS011;3002;42.642;24.812;2022-09-09T04:27:11;34.03;;;5.33;;
5953;SDS011;3002;42.642;24.812;2022-09-09T04:29:37;31.10;;;28.00;;
5953;SDS011;3002;42.642;24.812;2022-09-09T04:32:03;25.10;;;10.47;;
5953;SDS011;3002;42.642;24.812;2022-09-09T04:34:28;30.10;;;7.30;;
5953;SDS011;3002;42.642;24.812;2022-09-09T04:36:54;24.73;;;6.03;;
5953;SDS011;3002;42.642;24.812;2022-09-09T04:39:20;24.90;;;7.13;;
5953;SDS011;3002;42.642;24.812;2022-09-09T04:41:45;26.30;;;9.07;;
5953;SDS011;3002;42.642;24.812;2022-09-09T04:44:12;40.87;;;19.10;;
5953;SDS011;3002;42.642;24.812;2022-09-09T04:46:37;68.60;;;63.30;;
5953;SDS011;3002;42.642;24.812;2022-09-09T04:49:02;117.17;;;108.47;;
5953;SDS011;3002;42.642;24.812;2022-09-09T04:51:28;111.07;;;103.67;;
5953;SDS011;3002;42.642;24.812;2022-09-09T04:53:53;100.77;;;93.10;;
5953;SDS011;3002;42.642;24.812;2022-09-09T04:56:19;74.00;;;67.97;;
5953;SDS011;3002;42.642;24.812;2022-09-09T04:58:44;51.93;;;47.43;;
5953;SDS011;3002;42.642;24.812;2022-09-09T05:03:37;44.57;;;40.03;;
5953;SDS011;3002;42.642;24.812;2022-09-09T05:06:03;58.30;;;46.23;;
5953;SDS011;3002;42.642;24.812;2022-09-09T05:08:29;34.30;;;29.13;;
5953;SDS011;3002;42.642;24.812;2022-09-09T05:10:54;35.57;;;29.97;;
5953;SDS011;3002;42.642;24.812;2022-09-09T05:13:20;35.63;;;26.37;;
5953;SDS011;3002;42.642;24.812;2022-09-09T05:15:54;33.47;;;30.13;;
5953;SDS011;3002;42.642;24.812;2022-09-09T05:18:20;27.83;;;15.90;;
5953;SDS011;3002;42.642;24.812;2022-09-09T05:20:47;25.43;;;9.20;;
5953;SDS011;3002;42.642;24.812;2022-09-09T05:23:12;25.00;;;11.50;;
5953;SDS011;3002;42.642;24.812;2022-09-09T05:25:38;17.53;;;6.60;;
5953;SDS011;3002;42.642;24.812;2022-09-09T05:28:03;19.40;;;6.93;;
5953;SDS011;3002;42.642;24.812;2022-09-09T05:30:29;12.57;;;5.57;;
5953;SDS011;3002;42.642;24.812;2022-09-09T05:32:57;15.50;;;6.23;;
5953;SDS011;3002;42.642;24.812;2022-09-09T05:35:22;24.87;;;9.70;;
5953;SDS011;3002;42.642;24.812;2022-09-09T05:37:48;33.13;;;12.53;;
5953;SDS011;3002;42.642;24.812;2022-09-09T05:40:13;30.23;;;13.20;;
5953;SDS011;3002;42.642;24.812;2022-09-09T05:42:39;33.40;;;13.27;;
5953;SDS011;3002;42.642;24.812;2022-09-09T05:45:04;23.23;;;8.63;;
5953;SDS011;3002;42.642;24.812;2022-09-09T05:47:30;22.90;;;8.10;;
5953;SDS011;3002;42.642;24.812;2022-09-09T05:49:55;26.73;;;11.60;;
5953;SDS011;3002;42.642;24.812;2022-09-09T05:52:21;23.47;;;11.30;;
5953;SDS011;3002;42.642;24.812;2022-09-09T05:54:46;34.07;;;22.37;;
5953;SDS011;3002;42.642;24.812;2022-09-09T05:57:11;54.53;;;27.70;;
5953;SDS011;3002;42.642;24.812;2022-09-09T05:59:37;53.87;;;26.77;;
5953;SDS011;3002;42.642;24.812;2022-09-09T06:02:03;28.03;;;24.30;;
5953;SDS011;3002;42.642;24.812;2022-09-09T06:04:28;34.07;;;27.93;;
5953;SDS011;3002;42.642;24.812;2022-09-09T06:06:55;41.17;;;37.00;;
5953;SDS011;3002;42.642;24.812;2022-09-09T06:09:20;29.67;;;16.60;;
5953;SDS011;3002;42.642;24.812;2022-09-09T06:11:46;36.43;;;23.70;;
5953;SDS011;3002;42.642;24.812;2022-09-09T06:14:11;36.90;;;33.30;;
5953;SDS011;3002;42.642;24.812;2022-09-09T06:16:36;42.70;;;35.83;;
5953;SDS011;3002;42.642;24.812;2022-09-09T06:19:02;45.70;;;41.17;;
5953;SDS011;3002;42.642;24.812;2022-09-09T06:21:34;48.50;;;43.67;;
5953;SDS011;3002;42.642;24.812;2022-09-09T06:24:03;95.47;;;59.83;;
5953;SDS011;3002;42.642;24.812;2022-09-09T06:26:29;56.87;;;51.83;;
5953;SDS011;3002;42.642;24.812;2022-09-09T06:28:55;61.73;;;56.03;;
5953;SDS011;3002;42.642;24.812;2022-09-09T06:31:24;69.90;;;62.63;;
5953;SDS011;3002;42.642;24.812;2022-09-09T06:33:50;55.10;;;49.53;;
5953;SDS011;3002;42.642;24.812;2022-09-09T06:36:17;43.57;;;34.30;;
5953;SDS011;3002;42.642;24.812;2022-09-09T06:38:43;39.67;;;35.73;;
5953;SDS011;3002;42.642;24.812;2022-09-09T06:41:09;49.30;;;45.17;;
5953;SDS011;3002;42.642;24.812;2022-09-09T06:43:34;52.33;;;47.33;;
5953;SDS011;3002;42.642;24.812;2022-09-09T06:48:26;39.23;;;36.37;;
5953;SDS011;3002;42.642;24.812;2022-09-09T06:51:02;31.70;;;29.33;;
5953;SDS011;3002;42.642;24.812;2022-09-09T06:53:27;32.13;;;29.77;;
5953;SDS011;3002;42.642;24.812;2022-09-09T06:55:53;50.00;;;46.57;;
5953;SDS011;3002;42.642;24.812;2022-09-09T06:58:18;54.20;;;48.67;;
5953;SDS011;3002;42.642;24.812;2022-09-09T07:00:43;68.10;;;62.80;;
5953;SDS011;3002;42.642;24.812;2022-09-09T07:03:09;69.10;;;63.40;;
5953;SDS011;3002;42.642;24.812;2022-09-09T07:05:35;71.40;;;66.67;;
5953;SDS011;3002;42.642;24.812;2022-09-09T07:08:00;89.00;;;82.33;;
5953;SDS011;3002;42.642;24.812;2022-09-09T07:10:25;88.87;;;81.63;;
5953;SDS011;3002;42.642;24.812;2022-09-09T07:12:51;89.90;;;83.10;;
5953;SDS011;3002;42.642;24.812;2022-09-09T07:15:17;112.07;;;103.40;;
5953;SDS011;3002;42.642;24.812;2022-09-09T07:17:43;78.40;;;72.20;;
5953;SDS011;3002;42.642;24.812;2022-09-09T07:20:09;87.13;;;79.70;;
5953;SDS011;3002;42.642;24.812;2022-09-09T07:22:34;69.87;;;63.17;;
5953;SDS011;3002;42.642;24.812;2022-09-09T07:24:59;70.00;;;64.00;;
5953;SDS011;3002;42.642;24.812;2022-09-09T07:27:25;108.90;;;101.00;;
5953;SDS011;3002;42.642;24.812;2022-09-09T07:29:50;124.17;;;112.40;;
5953;SDS011;3002;42.642;24.812;2022-09-09T07:32:16;103.83;;;95.93;;
5953;SDS011;3002;42.642;24.812;2022-09-09T07:34:42;91.57;;;82.87;;
5953;SDS011;3002;42.642;24.812;2022-09-09T07:37:08;78.03;;;71.63;;
5953;SDS011;3002;42.642;24.812;2022-09-09T07:39:36;99.00;;;91.20;;
5953;SDS011;3002;42.642;24.812;2022-09-09T07:42:01;87.10;;;79.87;;
5953;SDS011;3002;42.642;24.812;2022-09-09T07:44:27;58.50;;;53.50;;
5953;SDS011;3002;42.642;24.812;2022-09-09T07:46:53;47.77;;;42.83;;
5953;SDS011;3002;42.642;24.812;2022-09-09T07:49:18;43.00;;;39.03;;
5953;SDS011;3002;42.642;24.812;2022-09-09T07:51:45;58.97;;;52.50;;
5953;SDS011;3002;42.642;24.812;2022-09-09T07:54:12;51.93;;;46.80;;
5953;SDS011;3002;42.642;24.812;2022-09-09T07:56:38;76.23;;;56.77;;
5953;SDS011;3002;42.642;24.812;2022-09-09T07:59:04;59.83;;;54.27;;
5953;SDS011;3002;42.642;24.812;2022-09-09T08:01:35;60.03;;;54.03;;
5953;SDS011;3002;42.642;24.812;2022-09-09T08:04:06;73.53;;;67.47;;
5953;SDS011;3002;42.642;24.812;2022-09-09T08:06:34;77.57;;;71.57;;
5953;SDS011;3002;42.642;24.812;2022-09-09T08:08:59;44.83;;;40.00;;
5953;SDS011;3002;42.642;24.812;2022-09-09T08:11:26;42.40;;;38.03;;
5953;SDS011;3002;42.642;24.812;2022-09-09T08:13:52;34.37;;;30.70;;
5953;SDS011;3002;42.642;24.812;2022-09-09T08:16:19;45.37;;;40.43;;
5953;SDS011;3002;42.642;24.812;2022-09-09T08:18:46;34.87;;;31.60;;
5953;SDS011;3002;42.642;24.812;2022-09-09T08:21:13;33.87;;;30.80;;
5953;SDS011;3002;42.642;24.812;2022-09-09T08:23:40;41.93;;;27.20;;
5953;SDS011;3002;42.642;24.812;2022-09-09T08:28:38;34.57;;;31.73;;
5953;SDS011;3002;42.642;24.812;2022-09-09T08:31:08;36.07;;;32.33;;
5953;SDS011;3002;42.642;24.812;2022-09-09T08:33:34;35.53;;;29.80;;
5953;SDS011;3002;42.642;24.812;2022-09-09T08:36:01;43.70;;;39.20;;
5953;SDS011;3002;42.642;24.812;2022-09-09T08:38:26;41.20;;;37.13;;
5953;SDS011;3002;42.642;24.812;2022-09-09T08:40:53;37.87;;;34.33;;
5953;SDS011;3002;42.642;24.812;2022-09-09T08:43:24;47.23;;;43.13;;
5953;SDS011;3002;42.642;24.812;2022-09-09T08:45:53;49.57;;;45.83;;
5953;SDS011;3002;42.642;24.812;2022-09-09T08:50:46;72.93;;;67.30;;
5953;SDS011;3002;42.642;24.812;2022-09-09T08:53:23;83.73;;;77.47;;
5953;SDS011;3002;42.642;24.812;2022-09-09T08:55:59;88.80;;;82.77;;
5953;SDS011;3002;42.642;24.812;2022-09-09T08:58:27;112.83;;;103.73;;
5953;SDS011;3002;42.642;24.812;2022-09-09T09:11:10;132.57;;;122.40;;
5953;SDS011;3002;42.642;24.812;2022-09-09T09:16:12;106.43;;;99.50;;
5953;SDS011;3002;42.642;24.812;2022-09-09T09:18:39;121.67;;;113.23;;
5953;SDS011;3002;42.642;24.812;2022-09-09T09:23:42;133.73;;;124.57;;
5953;SDS011;3002;42.642;24.812;2022-09-09T09:26:09;122.83;;;115.03;;
5953;SDS011;3002;42.642;24.812;2022-09-09T09:28:36;152.80;;;143.00;;
5953;SDS011;3002;42.642;24.812;2022-09-09T09:35:52;119.20;;;111.43;;
5953;SDS011;3002;42.642;24.812;2022-09-09T09:38:25;175.57;;;162.87;;
5953;SDS011;3002;42.642;24.812;2022-09-09T09:40:55;171.83;;;159.60;;
5953;SDS011;3002;42.642;24.812;2022-09-09T09:45:51;202.50;;;188.40;;
5953;SDS011;3002;42.642;24.812;2022-09-09T09:48:17;211.77;;;197.53;;
5953;SDS011;3002;42.642;24.812;2022-09-09T09:51:25;226.37;;;209.90;;
5953;SDS011;3002;42.642;24.812;2022-09-09T09:53:32;255.50;;;238.20;;
5953;SDS011;3002;42.642;24.812;2022-09-09T09:56:00;249.77;;;232.63;;
5953;SDS011;3002;42.642;24.812;2022-09-09T09:58:59;264.73;;;246.23;;
5953;SDS011;3002;42.642;24.812;2022-09-09T10:01:25;248.57;;;231.73;;
5953;SDS011;3002;42.642;24.812;2022-09-09T10:03:53;269.17;;;250.13;;
5953;SDS011;3002;42.642;24.812;2022-09-09T10:06:35;308.07;;;286.43;;
5953;SDS011;3002;42.642;24.812;2022-09-09T10:09:01;296.17;;;275.33;;
5953;SDS011;3002;42.642;24.812;2022-09-09T10:11:34;354.90;;;328.80;;
5953;SDS011;3002;42.642;24.812;2022-09-09T10:14:12;325.67;;;302.03;;
5953;SDS011;3002;42.642;24.812;2022-09-09T10:19:33;328.57;;;305.23;;
5953;SDS011;3002;42.642;24.812;2022-09-09T10:24:55;254.80;;;237.53;;
5953;SDS011;3002;42.642;24.812;2022-09-09T10:34:56;346.43;;;321.50;;
5953;SDS011;3002;42.642;24.812;2022-09-09T10:39:48;360.83;;;334.07;;
5953;SDS011;3002;42.642;24.812;2022-09-09T10:42:16;378.97;;;351.77;;
5953;SDS011;3002;42.642;24.812;2022-09-09T10:44:46;349.60;;;324.43;;
5953;SDS011;3002;42.642;24.812;2022-09-09T10:47:29;358.23;;;330.63;;
5953;SDS011;3002;42.642;24.812;2022-09-09T10:52:32;249.03;;;231.20;;
5953;SDS011;3002;42.642;24.812;2022-09-09T10:55:18;233.43;;;217.17;;
5953;SDS011;3002;42.642;24.812;2022-09-09T10:57:50;202.97;;;189.03;;
5953;SDS011;3002;42.642;24.812;2022-09-09T11:00:21;266.43;;;247.80;;
5953;SDS011;3002;42.642;24.812;2022-09-09T11:02:55;293.03;;;272.57;;
5953;SDS011;3002;42.642;24.812;2022-09-09T11:05:22;257.77;;;239.70;;
5953;SDS011;3002;42.642;24.812;2022-09-09T11:07:57;253.47;;;236.33;;
5953;SDS011;3002;42.642;24.812;2022-09-09T11:10:24;191.10;;;178.37;;
5953;SDS011;3002;42.642;24.812;2022-09-09T11:12:52;156.67;;;146.47;;
5953;SDS011;3002;42.642;24.812;2022-09-09T11:15:29;106.33;;;99.27;;
5953;SDS011;3002;42.642;24.812;2022-09-09T11:17:58;139.53;;;129.70;;
5953;SDS011;3002;42.642;24.812;2022-09-09T11:20:26;89.53;;;83.53;;
5953;SDS011;3002;42.642;24.812;2022-09-09T11:25:53;110.43;;;102.73;;
5953;SDS011;3002;42.642;24.812;2022-09-09T11:28:26;82.10;;;74.47;;
5953;SDS011;3002;42.642;24.812;2022-09-09T11:31:17;61.20;;;55.53;;
5953;SDS011;3002;42.642;24.812;2022-09-09T11:38:53;87.57;;;81.60;;
5953;SDS011;3002;42.642;24.812;2022-09-09T11:41:21;118.83;;;110.77;;
5953;SDS011;3002;42.642;24.812;2022-09-09T11:43:47;115.13;;;106.60;;
5953;SDS011;3002;42.642;24.812;2022-09-09T11:46:14;118.57;;;109.57;;
5953;SDS011;3002;42.642;24.812;2022-09-09T11:48:44;107.20;;;99.30;;
5953;SDS011;3002;42.642;24.812;2022-09-09T11:53:47;115.17;;;106.33;;
5953;SDS011;3002;42.642;24.812;2022-09-09T11:56:13;88.57;;;82.33;;
5953;SDS011;3002;42.642;24.812;2022-09-09T11:58:58;102.60;;;94.03;;
5953;SDS011;3002;42.642;24.812;2022-09-09T12:01:26;95.27;;;88.53;;
5953;SDS011;3002;42.642;24.812;2022-09-09T12:06:45;91.00;;;84.43;;
5953;SDS011;3002;42.642;24.812;2022-09-09T12:09:18;89.23;;;82.67;;
5953;SDS011;3002;42.642;24.812;2022-09-09T12:11:44;87.67;;;81.13;;
5953;SDS011;3002;42.642;24.812;2022-09-09T12:16:53;83.97;;;77.27;;
5953;SDS011;3002;42.642;24.812;2022-09-09T12:19:20;96.63;;;89.57;;
5953;SDS011;3002;42.642;24.812;2022-09-09T12:22:05;90.27;;;83.27;;
5953;SDS011;3002;42.642;24.812;2022-09-09T12:24:42;80.03;;;74.33;;
5953;SDS011;3002;42.642;24.812;2022-09-09T12:32:30;93.33;;;85.90;;
5953;SDS011;3002;42.642;24.812;2022-09-09T12:34:59;70.33;;;64.93;;
5953;SDS011;3002;42.642;24.812;2022-09-09T12:37:47;27.20;;;6.45;;
5953;SDS011;3002;42.642;24.812;2022-09-09T12:40:25;33.33;;;28.40;;
5953;SDS011;3002;42.642;24.812;2022-09-09T12:42:50;47.50;;;33.23;;
5953;SDS011;3002;42.642;24.812;2022-09-09T12:45:19;39.90;;;30.73;;
5953;SDS011;3002;42.642;24.812;2022-09-09T12:48:08;38.30;;;33.03;;
5953;SDS011;3002;42.642;24.812;2022-09-09T12:50:42;29.57;;;26.43;;
5953;SDS011;3002;42.642;24.812;2022-09-09T12:53:12;31.83;;;28.43;;
5953;SDS011;3002;42.642;24.812;2022-09-09T12:55:48;54.97;;;29.53;;
5953;SDS011;3002;42.642;24.812;2022-09-09T12:58:30;30.17;;;24.83;;
5953;SDS011;3002;42.642;24.812;2022-09-09T13:00:59;37.70;;;33.63;;
5953;SDS011;3002;42.642;24.812;2022-09-09T13:03:25;35.40;;;32.10;;
5953;SDS011;3002;42.642;24.812;2022-09-09T13:05:50;36.57;;;32.77;;
5953;SDS011;3002;42.642;24.812;2022-09-09T13:08:16;42.00;;;37.70;;
5953;SDS011;3002;42.642;24.812;2022-09-09T13:10:51;40.90;;;37.07;;
5953;SDS011;3002;42.642;24.812;2022-09-09T13:13:24;43.27;;;39.07;;
5953;SDS011;3002;42.642;24.812;2022-09-09T13:15:51;40.33;;;36.30;;
5953;SDS011;3002;42.642;24.812;2022-09-09T13:18:27;41.07;;;22.67;;
5953;SDS011;3002;42.642;24.812;2022-09-09T13:20:56;24.80;;;18.83;;
5953;SDS011;3002;42.642;24.812;2022-09-09T13:24:01;40.80;;;21.13;;
5953;SDS011;3002;42.642;24.812;2022-09-09T13:26:35;21.47;;;16.63;;
5953;SDS011;3002;42.642;24.812;2022-09-09T13:29:35;33.83;;;17.53;;
5953;SDS011;3002;42.642;24.812;2022-09-09T13:32:16;22.20;;;16.57;;
5953;SDS011;3002;42.642;24.812;2022-09-09T13:35:04;102.03;;;23.57;;
5953;SDS011;3002;42.642;24.812;2022-09-09T13:40:03;23.10;;;16.17;;
5953;SDS011;3002;42.642;24.812;2022-09-09T13:42:30;34.97;;;18.80;;
5953;SDS011;3002;42.642;24.812;2022-09-09T13:47:53;25.87;;;17.10;;
5953;SDS011;3002;42.642;24.812;2022-09-09T13:50:29;29.67;;;22.37;;
5953;SDS011;3002;42.642;24.812;2022-09-09T13:52:55;23.57;;;19.53;;
5953;SDS011;3002;42.642;24.812;2022-09-09T13:55:23;34.83;;;27.93;;
5953;SDS011;3002;42.642;24.812;2022-09-09T13:57:53;34.13;;;24.90;;
5953;SDS011;3002;42.642;24.812;2022-09-09T14:00:19;37.80;;;31.63;;
5953;SDS011;3002;42.642;24.812;2022-09-09T14:02:47;36.47;;;27.17;;
5953;SDS011;3002;42.642;24.812;2022-09-09T14:05:12;29.07;;;19.57;;
5953;SDS011;3002;42.642;24.812;2022-09-09T14:07:38;34.03;;;25.97;;
5953;SDS011;3002;42.642;24.812;2022-09-09T14:10:06;29.70;;;20.97;;
5953;SDS011;3002;42.642;24.812;2022-09-09T14:12:33;26.40;;;22.07;;
5953;SDS011;3002;42.642;24.812;2022-09-09T14:14:58;32.43;;;24.07;;
5953;SDS011;3002;42.642;24.812;2022-09-09T14:17:32;25.43;;;9.47;;
5953;SDS011;3002;42.642;24.812;2022-09-09T14:19:58;35.23;;;11.40;;
5953;SDS011;3002;42.642;24.812;2022-09-09T14:22:23;23.13;;;12.77;;
5953;SDS011;3002;42.642;24.812;2022-09-09T14:24:49;28.10;;;16.87;;
5953;SDS011;3002;42.642;24.812;2022-09-09T14:27:14;27.87;;;16.00;;
5953;SDS011;3002;42.642;24.812;2022-09-09T14:29:40;27.67;;;17.23;;
5953;SDS011;3002;42.642;24.812;2022-09-09T14:32:06;27.77;;;17.90;;
5953;SDS011;3002;42.642;24.812;2022-09-09T14:34:31;30.23;;;20.73;;
5953;SDS011;3002;42.642;24.812;2022-09-09T14:37:00;26.60;;;17.60;;
5953;SDS011;3002;42.642;24.812;2022-09-09T14:39:25;20.37;;;18.23;;
5953;SDS011;3002;42.642;24.812;2022-09-09T14:41:51;26.00;;;18.50;;
5953;SDS011;3002;42.642;24.812;2022-09-09T14:44:25;25.83;;;19.80;;
5953;SDS011;3002;42.642;24.812;2022-09-09T14:46:50;30.53;;;21.03;;
5953;SDS011;3002;42.642;24.812;2022-09-09T14:49:16;27.07;;;19.77;;
5953;SDS011;3002;42.642;24.812;2022-09-09T14:51:41;40.23;;;25.17;;
5953;SDS011;3002;42.642;24.812;2022-09-09T14:54:08;36.83;;;24.07;;
5953;SDS011;3002;42.642;24.812;2022-09-09T14:56:33;41.23;;;26.77;;
5953;SDS011;3002;42.642;24.812;2022-09-09T14:59:02;34.03;;;25.37;;
5953;SDS011;3002;42.642;24.812;2022-09-09T15:01:28;39.80;;;28.67;;
5953;SDS011;3002;42.642;24.812;2022-09-09T15:04:01;36.90;;;33.23;;
5953;SDS011;3002;42.642;24.812;2022-09-09T15:06:27;33.43;;;29.70;;
5953;SDS011;3002;42.642;24.812;2022-09-09T15:08:54;43.03;;;38.73;;
5953;SDS011;3002;42.642;24.812;2022-09-09T15:11:23;46.73;;;42.07;;
5953;SDS011;3002;42.642;24.812;2022-09-09T15:13:50;34.57;;;23.97;;
5953;SDS011;3002;42.642;24.812;2022-09-09T15:16:18;20.83;;;7.40;;
5953;SDS011;3002;42.642;24.812;2022-09-09T15:18:44;33.37;;;6.70;;
5953;SDS011;3002;42.642;24.812;2022-09-09T15:21:14;17.03;;;4.90;;
5953;SDS011;3002;42.642;24.812;2022-09-09T15:23:40;32.77;;;6.47;;
5953;SDS011;3002;42.642;24.812;2022-09-09T15:26:06;19.30;;;5.27;;
5953;SDS011;3002;42.642;24.812;2022-09-09T15:28:32;25.90;;;5.80;;
5953;SDS011;3002;42.642;24.812;2022-09-09T15:31:04;58.50;;;8.93;;
5953;SDS011;3002;42.642;24.812;2022-09-09T15:33:31;36.70;;;7.03;;
5953;SDS011;3002;42.642;24.812;2022-09-09T15:35:57;19.83;;;5.27;;
5953;SDS011;3002;42.642;24.812;2022-09-09T15:38:22;22.10;;;5.90;;
5953;SDS011;3002;42.642;24.812;2022-09-09T15:40:57;23.47;;;5.80;;
5953;SDS011;3002;42.642;24.812;2022-09-09T15:43:23;21.53;;;6.50;;
5953;SDS011;3002;42.642;24.812;2022-09-09T15:45:49;19.00;;;5.00;;
5953;SDS011;3002;42.642;24.812;2022-09-09T15:48:18;21.90;;;5.60;;
5953;SDS011;3002;42.642;24.812;2022-09-09T15:50:43;17.83;;;4.33;;
5953;SDS011;3002;42.642;24.812;2022-09-09T15:53:08;32.23;;;6.53;;
5953;SDS011;3002;42.642;24.812;2022-09-09T15:55:34;20.63;;;5.07;;
5953;SDS011;3002;42.642;24.812;2022-09-09T15:58:00;25.23;;;5.83;;
5953;SDS011;3002;42.642;24.812;2022-09-09T16:00:26;30.73;;;6.50;;
5953;SDS011;3002;42.642;24.812;2022-09-09T16:02:51;42.50;;;8.10;;
5953;SDS011;3002;42.642;24.812;2022-09-09T16:05:18;28.80;;;6.87;;
5953;SDS011;3002;42.642;24.812;2022-09-09T16:07:43;35.10;;;7.57;;
5953;SDS011;3002;42.642;24.812;2022-09-09T16:10:10;28.57;;;6.97;;
5953;SDS011;3002;42.642;24.812;2022-09-09T16:12:36;32.77;;;6.87;;
5953;SDS011;3002;42.642;24.812;2022-09-09T16:15:01;22.70;;;5.83;;
5953;SDS011;3002;42.642;24.812;2022-09-09T16:17:27;31.93;;;7.07;;
5953;SDS011;3002;42.642;24.812;2022-09-09T16:19:52;26.40;;;5.60;;
5953;SDS011;3002;42.642;24.812;2022-09-09T16:22:19;36.33;;;7.97;;
5953;SDS011;3002;42.642;24.812;2022-09-09T16:24:44;46.13;;;9.43;;
5953;SDS011;3002;42.642;24.812;2022-09-09T16:27:10;50.90;;;10.00;;
5953;SDS011;3002;42.642;24.812;2022-09-09T16:29:36;63.00;;;12.30;;
5953;SDS011;3002;42.642;24.812;2022-09-09T16:32:01;52.47;;;10.40;;
5953;SDS011;3002;42.642;24.812;2022-09-09T16:34:26;47.17;;;9.27;;
5953;SDS011;3002;42.642;24.812;2022-09-09T16:36:52;43.30;;;8.03;;